createdAt,value
2023-03-28T00:02:09.953Z,100535.60
2023-03-28T00:04:41.382Z,100536.91
2023-03-28T00:07:12.225Z,100536.88
2023-03-28T00:09:43.548Z,100536.70
2023-03-28T00:12:14.342Z,100536.96
2023-03-28T00:14:46.243Z,100538.92
2023-03-28T00:17:18.005Z,100540.02
2023-03-28T00:19:50.126Z,100536.38
2023-03-28T00:22:21.342Z,100534.54
2023-03-28T00:24:53.800Z,100537.88
2023-03-28T00:27:24.598Z,100538.74
2023-03-28T00:29:55.498Z,100534.95
2023-03-28T00:32:26.756Z,100539.21
2023-03-28T00:34:57.573Z,100538.34
2023-03-28T00:37:28.193Z,100537.25
2023-03-28T00:39:59.703Z,100540.47
2023-03-28T00:42:31.149Z,100538.88
2023-03-28T00:45:01.814Z,100537.96
2023-03-28T00:47:43.765Z,100536.92
2023-03-28T00:50:20.165Z,100536.59
2023-03-28T00:52:55.404Z,100537.34
2023-03-28T00:55:31.652Z,100537.08
2023-03-28T00:58:03.982Z,100529.63
2023-03-28T01:00:36.265Z,100530.30
2023-03-28T01:03:09.053Z,100535.29
2023-03-28T01:05:40.663Z,100536.95
2023-03-28T01:08:20.573Z,100534.45
2023-03-28T01:10:51.902Z,100532.02
2023-03-28T01:13:26.564Z,100534.74
2023-03-28T01:15:59.229Z,100532.66
2023-03-28T01:18:34.736Z,100534.66
2023-03-28T01:21:48.901Z,100548.58
2023-03-28T01:25:05.375Z,100547.00
2023-03-28T01:27:45.607Z,100548.13
2023-03-28T01:30:37.034Z,100553.35
2023-03-28T01:33:50.955Z,100553.52
2023-03-28T01:36:59.514Z,100552.09
2023-03-28T01:39:44.533Z,100556.98
2023-03-28T01:42:28.961Z,100546.54
2023-03-28T01:45:07.691Z,100557.45
2023-03-28T01:47:44.781Z,100560.16
2023-03-28T01:50:20.093Z,100568.16
2023-03-28T01:52:59.870Z,100572.48
2023-03-28T01:55:42.310Z,100569.66
2023-03-28T01:58:19.651Z,100577.18
2023-03-28T02:00:58.787Z,100577.23
2023-03-28T02:03:33.349Z,100580.29
2023-03-28T02:06:11.396Z,100582.95
2023-03-28T02:08:47.426Z,100576.34
2023-03-28T02:11:41.774Z,100583.02
2023-03-28T02:14:21.326Z,100582.77
2023-03-28T02:17:21.390Z,100591.52
2023-03-28T02:20:15.491Z,100583.08
2023-03-28T02:23:05.064Z,100585.34
2023-03-28T02:25:54.602Z,100581.56
2023-03-28T02:28:46.678Z,100581.86
2023-03-28T02:31:33.687Z,100582.88
2023-03-28T02:34:06.450Z,100585.34
2023-03-28T02:36:47.395Z,100590.92
2023-03-28T02:39:39.987Z,100589.46
2023-03-28T02:42:43.140Z,100595.46
2023-03-28T02:45:36.211Z,100599.08
2023-03-28T02:48:21.740Z,100596.83
2023-03-28T02:51:06.213Z,100599.13
2023-03-28T02:53:45.714Z,100602.81
2023-03-28T02:56:22.942Z,100604.31
2023-03-28T02:59:18.693Z,100602.92
2023-03-28T03:01:49.356Z,100594.98
2023-03-28T03:04:20.041Z,100600.85
2023-03-28T03:06:51.314Z,100603.89
2023-03-28T03:09:23.065Z,100606.51
2023-03-28T03:11:53.774Z,100609.97
2023-03-28T03:14:24.513Z,100607.52
2023-03-28T03:16:56.063Z,100606.64
2023-03-28T03:19:27.114Z,100605.56
2023-03-28T03:21:58.073Z,100603.04
2023-03-28T03:24:29.534Z,100603.33
2023-03-28T03:27:05.201Z,100607.76
2023-03-28T03:29:38.729Z,100616.79
2023-03-28T03:32:17.706Z,100627.74
2023-03-28T03:34:57.803Z,100630.59
2023-03-28T03:37:28.728Z,100633.21
2023-03-28T03:39:59.611Z,100637.40
2023-03-28T03:42:34.169Z,100636.75
2023-03-28T03:45:05.897Z,100645.35
2023-03-28T03:47:36.633Z,100650.74
2023-03-28T03:50:10.640Z,100660.92
2023-03-28T03:52:41.896Z,100662.25
2023-03-28T03:55:14.490Z,100669.88
2023-03-28T03:57:45.329Z,100673.62
2023-03-28T04:00:18.949Z,100678.16
2023-03-28T04:02:53.970Z,100689.15
2023-03-28T04:05:28.729Z,100691.88
2023-03-28T04:08:10.260Z,100696.69
2023-03-28T04:10:45.053Z,100697.36
2023-03-28T04:13:17.656Z,100702.52
2023-03-28T04:15:49.954Z,100706.77
2023-03-28T04:18:26.015Z,100709.14
2023-03-28T04:20:59.873Z,100715.29
2023-03-28T04:23:48.214Z,100716.48
2023-03-28T04:26:35.860Z,100720.73
2023-03-28T04:29:12.451Z,100728.84
2023-03-28T04:31:50.014Z,100727.91
2023-03-28T04:34:25.766Z,100734.24
2023-03-28T04:37:11.920Z,100742.10
2023-03-28T04:39:54.232Z,100743.45
2023-03-28T04:42:31.095Z,100751.72
2023-03-28T04:45:19.649Z,100751.93
2023-03-28T04:47:51.930Z,100762.46
2023-03-28T04:50:24.440Z,100760.17
2023-03-28T04:52:55.442Z,100768.81
2023-03-28T04:55:26.554Z,100773.20
2023-03-28T04:57:59.733Z,100773.61
2023-03-28T05:00:30.745Z,100777.30
2023-03-28T05:03:25.569Z,100788.33
2023-03-28T05:06:01.728Z,100795.73
2023-03-28T05:08:32.957Z,100796.82
2023-03-28T05:11:04.107Z,100802.38
2023-03-28T05:13:34.905Z,100806.91
2023-03-28T05:16:12.554Z,100810.80
2023-03-28T05:19:05.443Z,100814.72
2023-03-28T05:21:54.662Z,100827.00
2023-03-28T05:24:25.261Z,100828.59
2023-03-28T05:26:56.699Z,100829.42
2023-03-28T05:29:28.063Z,100833.42
2023-03-28T05:34:44.622Z,100841.09
2023-03-28T05:37:15.722Z,100839.66
2023-03-28T05:39:53.102Z,100846.80
2023-03-28T05:42:23.884Z,100853.06
2023-03-28T05:44:54.970Z,100856.46
2023-03-28T05:47:26.198Z,100852.67
2023-03-28T05:49:56.983Z,100868.64
2023-03-28T05:52:27.964Z,100874.53
2023-03-28T05:54:58.681Z,100880.42
2023-03-28T05:57:29.393Z,100885.73
2023-03-28T06:00:00.216Z,100888.19
2023-03-28T06:02:33.545Z,100892.19
2023-03-28T06:05:04.966Z,100900.49
2023-03-28T06:07:42.461Z,100902.92
2023-03-28T06:10:16.097Z,100907.36
2023-03-28T06:12:55.507Z,100909.89
2023-03-28T06:15:27.365Z,100913.78
2023-03-28T06:17:59.353Z,100912.00
2023-03-28T06:20:30.410Z,100925.92
2023-03-28T06:23:03.726Z,100927.15
2023-03-28T06:25:35.009Z,100933.59
2023-03-28T06:28:06.244Z,100937.42
2023-03-28T06:30:39.943Z,100942.20
2023-03-28T06:33:11.909Z,100945.50
2023-03-28T06:35:42.850Z,100953.86
2023-03-28T06:38:13.644Z,100957.67
2023-03-28T06:40:51.492Z,100957.19
2023-03-28T06:43:22.235Z,100956.38
2023-03-28T06:46:10.888Z,100964.80
2023-03-28T06:48:47.064Z,100966.51
2023-03-28T06:51:36.953Z,100970.24
2023-03-28T06:54:07.972Z,100976.97
2023-03-28T06:56:38.820Z,100978.98
2023-03-28T06:59:09.717Z,100978.88
2023-03-28T07:01:40.472Z,100982.61
2023-03-28T07:04:16.100Z,100980.14
2023-03-28T07:06:49.461Z,100984.83
2023-03-28T07:09:20.769Z,100994.69
2023-03-28T07:11:56.734Z,100991.59
2023-03-28T07:14:27.848Z,100993.69
2023-03-28T07:16:58.986Z,100996.67
2023-03-28T07:19:30.416Z,100990.84
2023-03-28T07:22:01.121Z,100998.40
2023-03-28T07:24:31.947Z,101000.20
2023-03-28T07:27:16.870Z,101006.31
2023-03-28T07:29:49.289Z,101012.03
2023-03-28T07:32:21.081Z,101014.67
2023-03-28T07:34:51.850Z,101017.34
2023-03-28T07:37:25.840Z,101023.73
2023-03-28T07:40:16.476Z,101031.08
2023-03-28T07:42:49.079Z,101032.65
2023-03-28T07:45:20.394Z,101035.29
2023-03-28T07:47:51.198Z,101032.92
2023-03-28T07:50:24.888Z,101033.46
2023-03-28T07:52:57.927Z,101038.77
2023-03-28T07:55:29.903Z,101038.77
2023-03-28T07:58:01.412Z,101046.31
2023-03-28T08:00:36.982Z,101047.02
2023-03-28T08:03:40.350Z,101048.08
2023-03-28T08:06:31.144Z,101048.80
2023-03-28T08:09:03.635Z,101045.77
2023-03-28T08:11:43.548Z,101041.92
2023-03-28T08:14:16.540Z,101044.98
2023-03-28T08:16:47.998Z,101056.38
2023-03-28T08:19:18.996Z,101052.83
2023-03-28T08:22:05.605Z,101056.10
2023-03-28T08:24:40.917Z,101061.58
2023-03-28T08:27:15.690Z,101063.70
2023-03-28T08:29:48.041Z,101068.05
2023-03-28T08:32:18.873Z,101074.41
2023-03-28T08:34:50.155Z,101077.36
2023-03-28T08:37:22.793Z,101080.95
2023-03-28T08:39:55.086Z,101085.21
2023-03-28T08:42:41.382Z,101081.70
2023-03-28T08:45:25.673Z,101080.60
2023-03-28T08:48:06.241Z,101085.61
2023-03-28T08:50:42.506Z,101088.95
2023-03-28T08:53:21.843Z,101089.16
2023-03-28T08:55:53.946Z,101083.39
2023-03-28T08:58:28.346Z,101081.27
2023-03-28T09:00:59.460Z,101090.21
2023-03-28T09:03:31.414Z,101087.41
2023-03-28T09:06:12.584Z,101100.48
2023-03-28T09:09:02.076Z,101104.56
2023-03-28T09:11:47.289Z,101100.86
2023-03-28T09:14:36.727Z,101099.58
2023-03-28T09:17:16.683Z,101103.48
2023-03-28T09:20:00.150Z,101103.61
2023-03-28T09:23:06.450Z,101116.70
2023-03-28T09:25:58.827Z,101122.38
2023-03-28T09:28:42.013Z,101117.08
2023-03-28T09:31:16.114Z,101118.02
2023-03-28T09:33:50.275Z,101119.15
2023-03-28T09:36:45.410Z,101115.52
2023-03-28T09:39:27.655Z,101110.45
2023-03-28T09:42:03.700Z,101118.65
2023-03-28T09:45:01.169Z,101124.34
2023-03-28T09:47:50.866Z,101110.70
2023-03-28T09:50:24.115Z,101114.42
2023-03-28T09:52:59.725Z,101118.05
2023-03-28T09:55:32.612Z,101132.92
2023-03-28T09:58:06.271Z,101127.03
2023-03-28T10:00:50.514Z,101119.50
2023-03-28T10:03:52.932Z,101122.67
2023-03-28T10:06:28.208Z,101129.11
2023-03-28T10:09:17.120Z,101128.47
2023-03-28T10:12:18.845Z,101128.89
2023-03-28T10:14:50.794Z,101139.20
2023-03-28T10:17:39.114Z,101140.72
2023-03-28T10:20:19.840Z,101136.71
2023-03-28T10:22:54.784Z,101136.52
2023-03-28T10:25:36.625Z,101133.87
2023-03-28T10:28:08.788Z,101139.34
2023-03-28T10:30:41.381Z,101135.95
2023-03-28T10:33:26.555Z,101141.25
2023-03-28T10:36:31.575Z,101136.66
2023-03-28T10:39:21.661Z,101140.08
2023-03-28T10:42:11.882Z,101133.83
2023-03-28T10:45:25.653Z,101135.48
2023-03-28T10:48:01.708Z,101143.38
2023-03-28T10:50:37.840Z,101136.32
2023-03-28T10:53:29.228Z,101142.80
2023-03-28T10:56:13.803Z,101133.21
2023-03-28T10:58:56.023Z,101133.64
2023-03-28T11:01:36.619Z,101136.20
2023-03-28T11:04:29.596Z,101138.65
2023-03-28T11:07:07.097Z,101138.05
2023-03-28T11:09:57.369Z,101137.40
2023-03-28T11:13:05.227Z,101144.96
2023-03-28T11:15:45.795Z,101142.71
2023-03-28T11:18:34.361Z,101138.25
2023-03-28T11:21:16.276Z,101146.71
2023-03-28T11:23:54.760Z,101138.27
2023-03-28T11:27:12.666Z,101137.42
2023-03-28T11:30:11.135Z,101145.65
2023-03-28T11:32:51.717Z,101144.85
2023-03-28T11:35:28.167Z,101143.34
2023-03-28T11:38:05.531Z,101136.80
2023-03-28T11:40:45.866Z,101144.87
2023-03-28T11:43:26.014Z,101149.27
2023-03-28T11:46:07.589Z,101145.60
2023-03-28T11:48:45.651Z,101141.30
2023-03-28T11:51:26.798Z,101135.45
2023-03-28T11:54:06.005Z,101134.86
2023-03-28T11:56:48.328Z,101132.00
2023-03-28T11:59:32.274Z,101131.70
2023-03-28T12:02:12.098Z,101135.06
2023-03-28T12:04:50.964Z,101129.19
2023-03-28T12:07:27.349Z,101118.84
2023-03-28T12:10:08.511Z,101119.15
2023-03-28T12:12:52.251Z,101122.11
2023-03-28T12:15:29.232Z,101120.69
2023-03-28T12:18:12.030Z,101114.27
2023-03-28T12:20:49.388Z,101111.54
2023-03-28T12:23:38.819Z,101123.17
2023-03-28T12:26:34.200Z,101118.56
2023-03-28T12:29:16.083Z,101113.92
2023-03-28T12:31:51.863Z,101115.89
2023-03-28T12:34:37.362Z,101124.23
2023-03-28T12:37:25.486Z,101123.77
2023-03-28T12:40:08.171Z,101118.35
2023-03-28T12:42:40.858Z,101116.81
2023-03-28T12:45:17.837Z,101117.52
2023-03-28T12:47:53.869Z,101118.23
2023-03-28T12:50:30.226Z,101125.10
2023-03-28T12:53:01.978Z,101124.02
2023-03-28T12:55:51.524Z,101116.08
2023-03-28T12:58:31.109Z,101119.04
2023-03-28T13:01:40.521Z,101126.26
2023-03-28T13:04:53.367Z,101123.38
2023-03-28T13:07:37.151Z,101125.50
2023-03-28T13:10:19.007Z,101125.23
2023-03-28T13:13:03.524Z,101125.86
2023-03-28T13:15:49.701Z,101121.57
2023-03-28T13:18:34.472Z,101116.21
2023-03-28T13:21:08.131Z,101117.82
2023-03-28T13:23:48.954Z,101122.11
2023-03-28T13:26:19.637Z,101126.70
2023-03-28T13:28:52.032Z,101116.67
2023-03-28T13:31:25.860Z,101118.47
2023-03-28T13:34:01.754Z,101113.23
2023-03-28T13:36:34.942Z,101114.77
2023-03-28T13:39:23.231Z,101110.11
2023-03-28T13:42:00.044Z,101105.77
2023-03-28T13:44:42.953Z,101109.98
2023-03-28T13:47:23.222Z,101106.23
2023-03-28T13:50:00.977Z,101114.64
2023-03-28T13:52:32.344Z,101112.70
2023-03-28T13:55:20.786Z,101116.30
2023-03-28T13:57:52.855Z,101115.92
2023-03-28T14:00:26.713Z,101117.52
2023-03-28T14:03:05.156Z,101115.02
2023-03-28T14:05:43.485Z,101111.85
2023-03-28T14:08:25.581Z,101108.01
2023-03-28T14:10:57.042Z,101109.81
2023-03-28T14:13:30.906Z,101113.02
2023-03-28T14:16:01.756Z,101117.83
2023-03-28T14:18:37.095Z,101116.75
2023-03-28T14:21:10.097Z,101115.02
2023-03-28T14:23:39.850Z,101106.87
2023-03-28T14:26:17.969Z,101101.14
2023-03-28T14:28:51.476Z,101100.02
2023-03-28T14:31:33.117Z,101098.25
2023-03-28T14:34:17.208Z,101097.96
2023-03-28T14:36:59.496Z,101105.47
2023-03-28T14:39:33.105Z,101107.10
2023-03-28T14:42:06.074Z,101112.97
2023-03-28T14:44:41.426Z,101109.48
2023-03-28T14:47:18.071Z,101110.62
2023-03-28T14:49:49.077Z,101107.16
2023-03-28T14:52:30.229Z,101116.89
2023-03-28T14:55:01.909Z,101115.55
2023-03-28T14:57:34.153Z,101111.33
2023-03-28T15:00:12.641Z,101105.13
2023-03-28T15:02:46.197Z,101101.39
2023-03-28T15:05:19.410Z,101099.81
2023-03-28T15:08:01.921Z,101101.61
2023-03-28T15:10:33.622Z,101101.36
2023-03-28T15:13:08.222Z,101102.20
2023-03-28T15:15:43.555Z,101108.33
2023-03-28T15:18:18.477Z,101107.41
2023-03-28T15:20:55.394Z,101108.73
2023-03-28T15:23:29.331Z,101108.55
2023-03-28T15:26:04.947Z,101111.84
2023-03-28T15:28:37.410Z,101113.63
2023-03-28T15:31:09.617Z,101113.99
2023-03-28T15:33:40.392Z,101116.20
2023-03-28T15:36:17.377Z,101122.52
2023-03-28T15:38:52.372Z,101120.08
2023-03-28T15:41:28.832Z,101119.30
2023-03-28T15:44:23.201Z,101118.05
2023-03-28T15:46:57.194Z,101119.03
2023-03-28T15:49:29.103Z,101123.92
2023-03-28T15:52:04.944Z,101125.29
2023-03-28T15:54:42.252Z,101123.01
2023-03-28T15:57:15.694Z,101125.29
2023-03-28T15:59:51.121Z,101126.59
2023-03-28T16:02:33.982Z,101127.29
2023-03-28T16:05:08.588Z,101124.17
2023-03-28T16:07:51.025Z,101123.33
2023-03-28T16:10:24.114Z,101121.14
2023-03-28T16:13:22.159Z,101124.48
2023-03-28T16:16:12.498Z,101125.98
2023-03-28T16:18:55.135Z,101125.73
2023-03-28T16:21:26.198Z,101129.59
2023-03-28T16:23:56.968Z,101124.60
2023-03-28T16:26:27.921Z,101126.94
2023-03-28T16:28:58.608Z,101131.98
2023-03-28T16:31:31.090Z,101131.65
2023-03-28T16:34:01.812Z,101129.05
2023-03-28T16:36:32.421Z,101134.02
2023-03-28T16:39:05.239Z,101130.31
2023-03-28T16:41:34.575Z,101128.50
2023-03-28T16:44:05.483Z,101125.50
2023-03-28T16:46:36.325Z,101131.77
2023-03-28T16:49:07.351Z,101127.53
2023-03-28T16:51:38.008Z,101128.73
2023-03-28T16:54:10.168Z,101130.90
2023-03-28T16:56:41.420Z,101127.81
2023-03-28T16:59:12.324Z,101131.19
2023-03-28T17:01:46.343Z,101130.62
2023-03-28T17:04:17.176Z,101127.77
2023-03-28T17:06:48.858Z,101125.91
2023-03-28T17:09:19.598Z,101128.21
2023-03-28T17:11:50.664Z,101127.77
2023-03-28T17:14:22.345Z,101127.70
2023-03-28T17:16:53.205Z,101121.31
2023-03-28T17:19:24.247Z,101121.30
2023-03-28T17:21:55.633Z,101121.52
2023-03-28T17:24:26.659Z,101120.54
2023-03-28T17:26:57.766Z,101124.42
2023-03-28T17:29:28.677Z,101120.27
2023-03-28T17:32:02.924Z,101124.19
2023-03-28T17:34:35.952Z,101124.54
2023-03-28T17:37:06.561Z,101127.95
2023-03-28T17:39:38.351Z,101128.73
2023-03-28T17:42:09.756Z,101129.24
2023-03-28T17:44:41.102Z,101129.54
2023-03-28T17:47:12.680Z,101130.95
2023-03-28T17:49:43.459Z,101133.74
2023-03-28T17:52:14.232Z,101135.22
2023-03-28T17:54:45.925Z,101136.07
2023-03-28T17:57:16.873Z,101138.19
2023-03-28T17:59:47.696Z,101136.14
2023-03-28T18:02:18.538Z,101137.31
2023-03-28T18:04:56.805Z,101138.20
2023-03-28T18:07:30.652Z,101135.46
2023-03-28T18:10:03.314Z,101136.06
2023-03-28T18:12:34.138Z,101136.08
2023-03-28T18:15:06.414Z,101130.40
2023-03-28T18:17:37.294Z,101131.75
2023-03-28T18:20:10.451Z,101129.48
2023-03-28T18:22:42.415Z,101130.70
2023-03-28T18:25:13.323Z,101130.04
2023-03-28T18:27:43.996Z,101129.76
2023-03-28T18:30:15.741Z,101131.60
2023-03-28T18:32:46.465Z,101137.48
2023-03-28T18:35:17.618Z,101136.30
2023-03-28T18:37:48.325Z,101137.36
2023-03-28T18:40:19.720Z,101136.31
2023-03-28T18:42:50.675Z,101137.02
2023-03-28T18:45:21.520Z,101134.88
2023-03-28T18:47:53.641Z,101138.39
2023-03-28T18:50:24.402Z,101139.07
2023-03-28T18:52:55.120Z,101137.12
2023-03-28T18:55:25.966Z,101137.70
2023-03-28T18:57:57.107Z,101141.83
2023-03-28T19:00:27.994Z,101135.30
2023-03-28T19:02:58.879Z,101140.05
2023-03-28T19:05:29.877Z,101139.04
2023-03-28T19:08:00.748Z,101133.74
2023-03-28T19:10:31.462Z,101136.64
2023-03-28T19:13:02.191Z,101137.36
2023-03-28T19:15:33.455Z,101138.90
2023-03-28T19:18:05.706Z,101137.05
2023-03-28T19:20:37.115Z,101136.82
2023-03-28T19:23:08.672Z,101135.60
2023-03-28T19:25:40.142Z,101138.64
2023-03-28T19:28:11.334Z,101141.86
2023-03-28T19:30:42.485Z,101138.95
2023-03-28T19:33:14.014Z,101138.28
2023-03-28T19:35:45.647Z,101133.09
2023-03-28T19:38:16.454Z,101135.66
2023-03-28T19:40:47.444Z,101137.90
2023-03-28T19:43:21.090Z,101135.92
2023-03-28T19:45:52.113Z,101138.77
2023-03-28T19:48:22.974Z,101133.86
2023-03-28T19:50:53.697Z,101133.73
2023-03-28T19:53:24.616Z,101137.73
2023-03-28T19:55:56.497Z,101138.52
2023-03-28T19:58:28.123Z,101133.91
2023-03-28T20:00:59.487Z,101133.50
2023-03-28T20:03:30.523Z,101131.98
2023-03-28T20:06:05.391Z,101131.35
2023-03-28T20:08:36.465Z,101133.34
2023-03-28T20:11:11.472Z,101135.48
2023-03-28T20:13:42.946Z,101141.04
2023-03-28T20:16:15.082Z,101136.02
2023-03-28T20:18:46.597Z,101137.94
2023-03-28T20:21:17.256Z,101135.88
2023-03-28T20:23:48.095Z,101136.09
2023-03-28T20:26:21.635Z,101129.21
2023-03-28T20:28:59.445Z,101120.81
2023-03-28T20:31:30.820Z,101116.98
2023-03-28T20:34:01.534Z,101115.73
2023-03-28T20:36:32.890Z,101111.77
2023-03-28T20:39:04.140Z,101107.40
2023-03-28T20:41:34.866Z,101101.58
2023-03-28T20:44:05.649Z,101098.86
2023-03-28T20:46:38.135Z,101093.02
2023-03-28T20:49:09.014Z,101098.73
2023-03-28T20:51:40.110Z,101097.28
2023-03-28T20:54:11.197Z,101094.77
2023-03-28T20:56:42.827Z,101092.69
2023-03-28T20:59:14.002Z,101088.09
2023-03-28T21:01:47.922Z,101081.92
2023-03-28T21:04:18.610Z,101082.75
2023-03-28T21:06:50.517Z,101074.70
2023-03-28T21:09:21.262Z,101075.60
2023-03-28T21:11:52.190Z,101073.67
2023-03-28T21:14:22.863Z,101075.64
2023-03-28T21:16:54.378Z,101075.56
2023-03-28T21:19:25.366Z,101070.45
2023-03-28T21:21:57.140Z,101071.58
2023-03-28T21:24:28.369Z,101070.39
2023-03-28T21:26:59.735Z,101065.80
2023-03-28T21:29:30.410Z,101067.08
2023-03-28T21:32:01.183Z,101069.83
2023-03-28T21:34:33.460Z,101072.40
2023-03-28T21:37:04.576Z,101075.23
2023-03-28T21:39:35.352Z,101075.50
2023-03-28T21:42:06.248Z,101074.54
2023-03-28T21:44:36.914Z,101075.51
2023-03-28T21:47:07.914Z,101075.38
2023-03-28T21:49:38.790Z,101072.64
2023-03-28T21:52:09.571Z,101068.38
2023-03-28T21:54:40.265Z,101070.30
2023-03-28T21:57:11.231Z,101072.09
2023-03-28T21:59:43.633Z,101066.99
2023-03-28T22:02:16.102Z,101077.14
2023-03-28T22:04:47.176Z,101076.30
2023-03-28T22:07:17.836Z,101077.03
2023-03-28T22:09:51.185Z,101072.67
2023-03-28T22:12:22.790Z,101071.17
2023-03-28T22:14:53.539Z,101066.86
2023-03-28T22:17:24.303Z,101064.66
2023-03-28T22:19:55.193Z,101060.36
2023-03-28T22:22:29.971Z,101057.40
2023-03-28T22:25:00.613Z,101052.70
2023-03-28T22:27:31.365Z,101042.69
2023-03-28T22:30:02.277Z,101037.49
2023-03-28T22:32:33.387Z,101035.21
2023-03-28T22:35:04.718Z,101033.09
2023-03-28T22:37:35.659Z,101036.20
2023-03-28T22:40:08.908Z,101042.38
2023-03-28T22:42:40.070Z,101036.64
2023-03-28T22:45:12.154Z,101037.71
2023-03-28T22:47:43.140Z,101041.06
2023-03-28T22:50:14.897Z,101039.45
2023-03-28T22:52:46.203Z,101038.44
2023-03-28T22:55:17.621Z,101032.58
2023-03-28T22:57:48.952Z,101032.09
2023-03-28T23:00:22.938Z,101030.95
2023-03-28T23:02:54.534Z,101021.94
2023-03-28T23:05:25.409Z,101025.92
2023-03-28T23:07:56.678Z,101025.13
2023-03-28T23:10:27.380Z,101024.47
2023-03-28T23:12:58.109Z,101024.79
2023-03-28T23:15:28.912Z,101020.02
2023-03-28T23:18:00.237Z,101022.11
2023-03-28T23:20:31.122Z,101020.48
2023-03-28T23:23:01.863Z,101020.39
2023-03-28T23:25:33.003Z,101023.52
2023-03-28T23:28:03.853Z,101025.84
2023-03-28T23:30:34.601Z,101016.83
2023-03-28T23:33:05.795Z,101019.64
2023-03-28T23:35:36.483Z,101020.61
2023-03-28T23:38:07.174Z,101024.65
2023-03-28T23:40:37.998Z,101025.91
2023-03-28T23:43:08.903Z,101023.66
2023-03-28T23:45:39.633Z,101022.73
2023-03-28T23:48:11.032Z,101016.98
2023-03-28T23:50:41.906Z,101016.88
2023-03-28T23:53:12.512Z,101014.95
2023-03-28T23:55:44.132Z,101007.39
2023-03-28T23:58:14.865Z,101004.35
